Hlavní strana
METAR-TAF:

METAR-TAF

Letiště :

Kokkola, Finsko

zeměpisná šířka: 63-43N, zeměpisná délka: 023-09E, výška: 25 m

Aktuální stav počasí

Zpráva byla vytvořena před 34 minutami, v 15:50 UTC
Severní vítr 3 kt
Teplota -1°C
Vlhkost vzduchu 74%
Tlak 1043 hPa
Viditelnost 10 km a více
Žádná oblačnost pod 1500 m, nevyskytují se cumulonimby.

METAR: EFKK 181550Z 35003KT CAVOK M01/M05 Q1043

Čas: 18:24 (16:24 UTC)

Předpověď počasí

Zpráva byla vytvořena před 2 hodinami a 0 minutami, v 14:24 UTC
Předpověď platná od 18 v 15 UTC do 18 v 24 UTC
Severní vítr 5 kt
Viditelnost 10 km a více
Žádná oblačnost pod 1500 m, nevyskytují se cumulonimby.

TAF: EFKK 181424Z 1815/1824 36005KT CAVOK

Stav a předpovědi počasí z více než 4 000 letišť (zprávy METAR a TAF).

Červené a žluté tečky na mapě představují dostupné meteorologické stanice.

Když kurzor umístíte na tečku, zobrazí se název stanice.

Pak kliknutím zobrazíte stav a předpověď počasí.

Chcete-li změnit mapu, kliknutím na zelené tlačítko se znaménkem +mapu přiblížíte, kliknutím na zelené tlačítko se znaménkem – mapu oddálíte a kliknutím na zelené šipky přejdete na sousední mapy.


METAR-TAF: